Time;durP1;ratioP1;P1;durP2;ratioP2;P2;SDS_P1;SDS_P2;PMS_P1;PMS_P2;Temp;Humidity;BMP_temperature;BMP_pressure;BME280_temperature;BME280_humidity;BME280_pressure;Samples;Min_cycle;Max_cycle;Signal;HPM_P1;HPM_P2
2022/05/03 00:00:07;;;;;;;13.20;9.88;;;13.00;73.20;;;13.32;57.65;97415.63;5043067;28;20049;-42
2022/05/03 00:03:11;;;;;;;10.07;8.98;;;12.90;73.90;;;13.26;57.66;97413.66;5042967;28;20072;-42
2022/05/03 00:05:56;;;;;;;11.18;9.82;;;12.80;74.50;;;13.23;58.12;97408.66;5042045;28;20394;-42
2022/05/03 00:08:37;;;;;;;9.45;8.52;;;12.80;75.20;;;13.21;58.19;97408.03;5042450;28;20056;-42
2022/05/03 00:11:29;;;;;;;12.85;8.90;;;12.70;75.00;;;13.24;58.08;97406.81;5041519;28;20059;-44
2022/05/03 00:14:49;;;;;;;11.40;10.07;;;12.80;74.90;;;13.22;58.00;97406.16;5041325;28;20050;-43
2022/05/03 00:17:22;;;;;;;11.32;10.15;;;12.80;75.00;;;13.23;58.23;97411.34;5041693;28;20051;-42
2022/05/03 00:19:52;;;;;;;11.50;9.73;;;12.80;74.20;;;13.20;58.37;97404.53;5041204;28;20058;-42
2022/05/03 00:22:21;;;;;;;11.23;9.60;;;12.80;74.50;;;13.20;58.41;97404.53;5042174;28;20082;-43
2022/05/03 00:24:54;;;;;;;11.02;9.77;;;12.80;74.70;;;13.17;58.46;97399.53;5042315;28;20041;-43
2022/05/03 00:27:27;;;;;;;10.20;9.10;;;12.70;74.70;;;13.14;58.54;97399.06;5041761;28;20048;-43
2022/05/03 00:30:00;;;;;;;10.35;9.25;;;12.70;75.20;;;13.11;58.69;97402.13;5042332;28;20247;-42
2022/05/03 00:32:29;;;;;;;11.13;9.98;;;12.60;75.20;;;13.06;58.81;97404.50;5042246;28;20261;-42
2022/05/03 00:34:59;;;;;;;10.82;9.73;;;12.60;75.60;;;13.07;58.98;97395.50;5042225;28;20339;-42
2022/05/03 00:37:28;;;;;;;11.85;10.00;;;12.60;75.50;;;13.09;58.64;97396.13;5041918;28;20235;-44
2022/05/03 00:39:56;;;;;;;13.07;9.70;;;12.60;75.40;;;13.07;58.84;97395.50;5042966;28;20247;-43
2022/05/03 00:42:33;;;;;;;11.35;9.73;;;12.60;75.50;;;13.03;58.99;97397.69;5042218;28;20045;-43
2022/05/03 00:45:46;;;;;;;12.90;9.95;;;12.60;75.80;;;12.99;58.90;97394.56;5041187;28;20049;-42
2022/05/03 00:48:40;;;;;;;13.10;10.43;;;12.60;76.70;;;13.03;59.00;97389.69;5040276;28;20053;-44
2022/05/03 00:51:20;;;;;;;12.82;10.23;;;12.60;76.40;;;13.04;58.89;97393.19;5042140;28;20236;-43
2022/05/03 00:54:23;;;;;;;10.25;9.10;;;12.70;76.40;;;13.03;59.04;97392.34;5042087;28;20053;-42
2022/05/03 00:57:24;;;;;;;10.80;9.70;;;12.70;76.20;;;13.00;58.76;97393.53;5041408;28;20046;-42
2022/05/03 01:00:05;;;;;;;12.93;10.02;;;12.60;76.60;;;13.02;59.20;97393.34;5040812;28;20060;-43
2022/05/03 01:02:55;;;;;;;12.35;10.32;;;12.60;76.30;;;13.04;59.08;97398.53;5042105;28;20044;-42
2022/05/03 01:05:51;;;;;;;12.85;10.60;;;12.70;77.60;;;12.99;59.25;97388.38;5041950;28;20046;-41
2022/05/03 01:08:33;;;;;;;11.88;9.95;;;12.60;76.30;;;13.00;59.12;97395.38;5042333;28;20111;-41
2022/05/03 01:11:50;;;;;;;15.57;10.63;;;12.60;76.80;;;12.96;59.40;97391.41;5044959;28;20079;-42
2022/05/03 01:14:28;;;;;;;11.10;9.90;;;12.60;77.60;;;12.92;59.37;97406.97;5045800;28;20054;-42
2022/05/03 01:17:25;;;;;;;11.68;9.10;;;12.50;77.10;;;12.94;59.23;97404.94;5045240;28;20348;-42
2022/05/03 01:20:05;;;;;;;13.48;10.88;;;12.60;76.80;;;12.95;59.12;97397.75;5044631;28;20057;-41
2022/05/03 01:23:12;;;;;;;11.27;10.15;;;12.60;76.30;;;12.89;59.05;97404.69;5045418;28;20049;-43
2022/05/03 01:26:14;;;;;;;12.32;10.45;;;12.50;76.40;;;12.84;59.04;97399.03;5044065;28;20057;-42
2022/05/03 01:29:18;;;;;;;11.82;9.73;;;12.40;77.20;;;12.82;59.17;97401.06;5045752;28;20271;-43
2022/05/03 01:31:47;;;;;;;11.10;9.63;;;12.30;76.70;;;12.77;59.31;97398.91;5045326;28;20052;-44
2022/05/03 01:34:19;;;;;;;11.50;10.10;;;12.30;77.10;;;12.73;59.38;97402.16;5044234;28;20048;-42
2022/05/03 01:36:59;;;;;;;11.73;9.68;;;12.20;77.30;;;12.71;59.29;97405.00;5045529;28;20050;-41
2022/05/03 01:40:01;;;;;;;11.68;10.57;;;12.30;77.10;;;12.71;59.35;97402.31;5045527;28;20053;-44
2022/05/03 01:42:56;;;;;;;12.35;9.82;;;12.30;77.20;;;12.69;59.42;97406.19;5045283;28;20055;-43
2022/05/03 01:45:47;;;;;;;11.05;9.95;;;12.30;76.90;;;12.63;59.34;97399.72;5044608;28;20041;-42
2022/05/03 01:48:18;;;;;;;12.35;10.95;;;12.20;77.30;;;12.59;59.52;97401.09;5045125;28;20068;-43
2022/05/03 01:51:14;;;;;;;11.90;10.57;;;12.10;77.10;;;12.56;59.30;97394.28;5044981;28;20297;-44
2022/05/03 01:54:03;;;;;;;12.25;10.82;;;12.10;77.90;;;12.54;59.53;97390.97;5043904;28;20053;-42
2022/05/03 01:57:10;;;;;;;12.63;11.35;;;12.10;77.80;;;12.51;59.53;97385.97;5043345;28;20057;-42
2022/05/03 02:00:01;;;;;;;12.88;11.50;;;12.10;78.20;;;12.49;59.35;97387.19;5044846;28;20057;-42
2022/05/03 02:03:03;;;;;;;13.48;11.27;;;12.00;78.20;;;12.44;59.58;97382.34;5044138;28;20056;-42
2022/05/03 02:06:12;;;;;;;12.73;11.32;;;12.00;78.10;;;12.39;59.56;97385.56;5042957;28;20058;-43
2022/05/03 02:09:21;;;;;;;13.93;11.32;;;11.90;78.60;;;12.32;59.60;97381.13;5028374;28;20057;-42
2022/05/03 02:12:15;;;;;;;13.75;12.35;;;11.90;79.40;;;12.31;59.94;97384.78;5062521;28;20057;-42
2022/05/03 02:14:55;;;;;;;18.42;13.05;;;11.80;78.70;;;12.30;59.78;97389.31;5044882;28;20057;-41
2022/05/03 02:17:54;;;;;;;13.23;11.83;;;11.90;79.00;;;12.28;59.69;97385.16;5044353;28;20050;-44
2022/05/03 02:21:17;;;;;;;13.93;12.03;;;11.90;78.60;;;12.21;59.75;97387.69;5043035;28;20045;-43
2022/05/03 02:24:03;;;;;;;19.30;12.73;;;11.80;79.10;;;12.18;59.57;97390.75;5045022;28;20071;-41
2022/05/03 02:26:54;;;;;;;13.67;12.17;;;11.70;80.10;;;12.13;60.28;97388.59;5043626;28;20084;-42
2022/05/03 02:29:35;;;;;;;13.93;12.30;;;11.70;78.90;;;12.11;60.06;97385.28;5043209;28;20052;-43
2022/05/03 02:32:08;;;;;;;13.27;11.80;;;11.60;79.00;;;12.08;60.41;97385.63;5044737;28;20059;-42
2022/05/03 02:34:58;;;;;;;16.40;12.35;;;11.60;78.90;;;12.08;59.92;97398.13;5044377;28;20254;-42
2022/05/03 02:37:48;;;;;;;14.53;12.87;;;11.60;79.00;;;12.09;60.12;97397.13;5043449;28;20051;-43
2022/05/03 02:40:21;;;;;;;13.23;11.88;;;11.70;79.20;;;12.07;60.35;97399.97;5042970;28;20347;-43
2022/05/03 02:42:51;;;;;;;15.57;12.77;;;11.60;78.60;;;12.07;60.21;97391.97;5044445;28;20053;-44
2022/05/03 02:45:19;;;;;;;15.53;13.13;;;11.60;78.30;;;12.04;59.96;97394.16;5042734;28;20068;-42
2022/05/03 02:48:18;;;;;;;16.05;13.95;;;11.60;78.60;;;11.97;60.41;97386.03;5041421;28;20057;-44
2022/05/03 02:50:55;;;;;;;17.52;12.45;;;11.50;79.70;;;11.94;60.20;97386.38;5043569;28;20052;-42
2022/05/03 02:53:49;;;;;;;14.27;12.53;;;11.40;80.00;;;11.82;60.74;97381.44;5042835;28;20359;-42
2022/05/03 02:56:33;;;;;;;16.60;13.63;;;11.30;80.20;;;11.73;60.89;97386.97;5043314;28;20049;-42
2022/05/03 02:59:22;;;;;;;17.92;13.55;;;11.20;80.80;;;11.74;60.71;97380.63;5042584;28;20058;-43
2022/05/03 03:02:29;;;;;;;15.35;13.27;;;11.30;80.50;;;11.73;60.79;97379.81;5044493;28;20071;-44
2022/05/03 03:05:08;;;;;;;15.53;12.97;;;11.20;80.90;;;11.77;60.74;97374.97;5043615;28;20232;-43
2022/05/03 03:07:57;;;;;;;21.10;17.50;;;11.30;80.90;;;11.76;60.71;97376.78;5043260;28;20251;-42
2022/05/03 03:10:38;;;;;;;17.83;16.00;;;11.30;81.30;;;11.77;61.07;97381.13;5042066;28;20057;-42
2022/05/03 03:13:28;;;;;;;21.40;17.35;;;11.40;81.50;;;11.78;61.15;97373.94;5043418;28;20348;-42
2022/05/03 03:15:56;;;;;;;21.80;17.67;;;11.40;81.40;;;11.79;60.96;97368.44;5042953;28;20243;-43
2022/05/03 03:18:26;;;;;;;19.47;17.00;;;11.40;81.10;;;11.79;61.11;97372.94;5043320;28;20047;-42
2022/05/03 03:20:57;;;;;;;17.87;15.50;;;11.40;81.60;;;11.76;61.60;97379.44;5041836;28;20077;-43
2022/05/03 03:23:29;;;;;;;18.40;15.23;;;11.30;82.70;;;11.74;61.19;97375.31;5043332;28;20268;-43
2022/05/03 03:25:58;;;;;;;18.10;16.20;;;11.30;83.40;;;11.70;61.66;97371.31;5043049;28;20343;-41
2022/05/03 03:28:29;;;;;;;17.50;15.07;;;11.20;82.90;;;11.68;61.37;97370.69;5043229;28;20053;-42
2022/05/03 03:31:00;;;;;;;17.63;15.87;;;11.20;83.00;;;11.65;61.51;97366.53;5042919;28;20063;-42
2022/05/03 03:33:34;;;;;;;18.38;14.60;;;11.20;83.10;;;11.63;61.50;97368.50;5041567;28;20057;-41
2022/05/03 03:36:07;;;;;;;15.10;13.52;;;11.20;83.50;;;11.63;61.77;97372.03;5042501;28;20052;-43
2022/05/03 03:38:48;;;;;;;16.77;14.90;;;11.20;83.70;;;11.62;61.47;97370.34;5041943;28;20339;-43
2022/05/03 03:41:16;;;;;;;20.10;15.83;;;11.20;84.10;;;11.59;61.64;97378.72;5042972;28;20095;-45
2022/05/03 03:43:46;;;;;;;19.00;15.63;;;11.10;83.30;;;11.58;61.96;97385.03;5043023;28;20271;-43
2022/05/03 03:46:14;;;;;;;21.03;18.83;;;11.10;83.80;;;11.55;62.16;97387.22;5042445;28;20052;-44
2022/05/03 03:48:43;;;;;;;20.70;17.33;;;11.10;84.40;;;11.56;62.05;97380.91;5041982;28;20045;-43
2022/05/03 03:51:14;;;;;;;18.07;16.07;;;11.10;84.80;;;11.59;62.02;97386.72;5042621;28;20053;-45
2022/05/03 03:53:43;;;;;;;18.00;15.83;;;11.20;84.10;;;11.61;61.76;97389.19;5042558;28;20204;-42
2022/05/03 03:56:11;;;;;;;18.03;15.60;;;11.20;83.60;;;11.61;61.62;97383.84;5042219;28;20055;-44
2022/05/03 03:58:39;;;;;;;17.70;15.80;;;11.20;83.50;;;11.61;61.71;97382.03;5042406;28;20243;-43
2022/05/03 04:01:09;;;;;;;17.60;15.80;;;11.20;83.50;;;11.61;62.08;97389.19;5041475;28;20045;-43
2022/05/03 04:03:39;;;;;;;17.75;15.55;;;11.20;83.10;;;11.59;61.83;97392.06;5041533;28;20240;-43
2022/05/03 04:06:06;;;;;;;19.33;16.80;;;11.20;83.20;;;11.58;61.73;97389.56;5041098;28;20259;-43
2022/05/03 04:08:34;;;;;;;17.13;14.70;;;11.20;83.30;;;11.59;61.71;97399.19;5042582;28;20045;-42
2022/05/03 04:11:18;;;;;;;17.75;15.88;;;11.20;82.90;;;11.57;61.41;97393.22;5042519;28;20051;-43
2022/05/03 04:13:46;;;;;;;23.38;16.48;;;11.20;83.00;;;11.53;61.88;97391.91;5041332;28;20067;-44
2022/05/03 04:16:14;;;;;;;18.30;16.13;;;11.10;83.20;;;11.49;61.90;97388.75;5042003;28;20348;-43
2022/05/03 04:18:45;;;;;;;21.65;19.35;;;11.00;83.60;;;11.46;61.95;97393.59;5042423;28;20063;-43
2022/05/03 04:21:17;;;;;;;26.00;21.37;;;11.00;84.00;;;11.46;62.35;97396.25;5041794;28;20049;-43
2022/05/03 04:23:45;;;;;;;22.47;20.17;;;11.00;84.50;;;11.42;61.92;97395.78;5042471;28;20045;-43
2022/05/03 04:26:14;;;;;;;21.05;18.58;;;10.90;84.60;;;11.39;62.24;97396.13;5041843;28;20048;-44
2022/05/03 04:28:42;;;;;;;25.27;18.60;;;10.90;85.10;;;11.37;62.60;97400.78;5043290;28;20229;-44
2022/05/03 04:31:10;;;;;;;21.57;19.27;;;10.90;85.70;;;11.35;62.48;97397.47;5041831;28;20045;-45
2022/05/03 04:33:38;;;;;;;20.80;17.63;;;10.90;86.50;;;11.34;62.44;97401.13;5042248;28;20045;-45
2022/05/03 04:36:06;;;;;;;20.77;17.92;;;10.90;86.40;;;11.33;62.65;97412.81;5041723;28;20049;-44
2022/05/03 04:38:34;;;;;;;21.80;18.50;;;10.80;86.30;;;11.34;62.58;97409.13;5042526;28;20046;-43
2022/05/03 04:41:03;;;;;;;26.00;19.37;;;10.90;87.00;;;11.37;62.96;97408.78;5042009;28;20262;-44
2022/05/03 04:43:30;;;;;;;24.53;19.77;;;11.00;87.60;;;11.38;63.03;97411.28;5042550;28;20046;-43
2022/05/03 04:46:00;;;;;;;23.08;18.15;;;11.00;87.40;;;11.40;63.01;97413.78;5045820;28;20051;-45
2022/05/03 04:48:28;;;;;;;20.43;17.50;;;11.00;87.90;;;11.43;62.79;97418.75;5045775;28;20067;-44
2022/05/03 04:50:56;;;;;;;19.60;17.53;;;11.00;88.00;;;11.45;63.23;97414.09;5046041;28;20049;-44
2022/05/03 04:53:24;;;;;;;19.37;16.70;;;11.10;88.00;;;11.49;63.30;97418.06;5046049;28;20050;-44
2022/05/03 04:55:51;;;;;;;19.60;16.53;;;11.20;87.70;;;11.54;62.91;97418.38;5045111;28;20060;-43
2022/05/03 04:58:19;;;;;;;19.17;15.03;;;11.20;87.50;;;11.59;63.22;97417.84;5046114;28;20243;-43
2022/05/03 05:00:47;;;;;;;18.87;16.27;;;11.30;87.80;;;11.64;63.37;97412.84;5045872;28;20041;-43
2022/05/03 05:03:15;;;;;;;19.03;15.37;;;11.30;87.80;;;11.70;63.46;97416.66;5045982;28;20041;-42
2022/05/03 05:05:43;;;;;;;17.40;14.83;;;11.40;87.60;;;11.75;63.34;97417.81;5045357;28;20052;-42
2022/05/03 05:08:11;;;;;;;19.43;17.33;;;11.50;87.50;;;11.82;63.52;97417.94;5046141;28;20347;-44
2022/05/03 05:10:38;;;;;;;22.17;18.25;;;11.60;87.20;;;11.88;63.67;97419.88;5045837;28;20055;-42
2022/05/03 05:13:06;;;;;;;19.88;16.15;;;11.70;86.80;;;11.98;63.50;97419.69;5045797;28;20489;-43
2022/05/03 05:15:37;;;;;;;18.27;14.63;;;11.80;86.40;;;11.98;63.53;97425.03;5045547;28;20053;-43
2022/05/03 05:18:05;;;;;;;14.63;13.10;;;11.80;86.00;;;12.00;63.66;97415.88;5045958;28;20068;-44
2022/05/03 05:20:34;;;;;;;15.57;12.65;;;11.80;86.20;;;12.02;63.58;97423.69;5044664;28;20271;-44
2022/05/03 05:23:01;;;;;;;15.93;13.70;;;11.80;86.10;;;12.08;63.29;97425.66;5045250;28;20051;-44
2022/05/03 05:25:51;;;;;;;16.77;13.27;;;11.90;86.10;;;12.14;63.54;97419.63;5045167;28;20255;-44
2022/05/03 05:28:21;;;;;;;15.07;13.50;;;12.00;85.90;;;12.21;63.56;97425.91;5045337;28;20053;-43
2022/05/03 05:30:51;;;;;;;17.92;14.10;;;12.10;85.60;;;12.30;63.33;97420.50;5045430;28;20232;-46
2022/05/03 05:33:21;;;;;;;16.92;13.93;;;12.20;85.30;;;12.33;63.40;97429.00;5045727;28;20053;-43
2022/05/03 05:35:50;;;;;;;18.35;15.13;;;12.20;84.90;;;12.36;63.38;97423.28;5045147;28;20053;-45
2022/05/03 05:38:19;;;;;;;15.32;13.73;;;12.20;85.00;;;12.40;63.26;97429.13;5045308;28;20049;-43
2022/05/03 05:40:48;;;;;;;15.43;13.63;;;12.30;85.10;;;12.42;63.45;97432.44;5044269;28;20141;-43
2022/05/03 05:43:16;;;;;;;17.05;14.52;;;12.30;85.30;;;12.50;63.54;97429.69;5045173;28;20049;-42
2022/05/03 05:45:45;;;;;;;16.88;14.38;;;12.40;85.20;;;12.61;63.37;97434.63;5044768;28;20073;-44
2022/05/03 05:48:13;;;;;;;17.05;14.88;;;12.50;85.10;;;12.71;63.65;97438.91;5044888;28;20052;-44
2022/05/03 05:50:41;;;;;;;16.75;14.65;;;12.70;85.10;;;12.79;63.63;97436.16;5044935;28;20047;-43
2022/05/03 05:55:56;;;;;;;19.92;16.33;;;12.90;85.70;;;12.98;63.95;97445.50;5044623;28;20049;-44
2022/05/03 05:58:24;;;;;;;23.98;18.08;;;13.00;85.90;;;13.03;64.17;97437.78;5044863;28;20243;-43
2022/05/03 06:00:51;;;;;;;27.33;18.45;;;13.00;86.70;;;13.07;64.29;97440.94;5045237;28;20048;-44
2022/05/03 06:03:22;;;;;;;25.63;18.67;;;13.00;87.00;;;13.10;64.00;97436.03;5044760;28;20239;-45
2022/05/03 06:05:51;;;;;;;30.90;17.27;;;13.10;87.00;;;13.12;64.12;97444.69;5044358;28;20401;-45
2022/05/03 06:08:18;;;;;;;26.83;17.48;;;13.10;87.10;;;13.14;63.78;97444.50;5044824;28;20247;-44
2022/05/03 06:10:49;;;;;;;20.00;16.92;;;13.10;87.10;;;13.15;63.92;97446.19;5045029;28;20059;-47
2022/05/03 06:13:17;;;;;;;22.17;17.33;;;13.00;86.60;;;13.16;63.86;97445.16;5044449;28;20041;-45
2022/05/03 06:15:46;;;;;;;22.20;18.00;;;13.00;86.70;;;13.16;63.58;97450.50;5044070;28;20239;-43
2022/05/03 06:18:14;;;;;;;24.70;18.15;;;13.00;86.70;;;13.18;63.63;97452.00;5044393;28;20044;-43
2022/05/03 06:20:42;;;;;;;21.27;16.55;;;13.00;86.20;;;13.20;63.56;97444.63;5044975;28;20050;-43
2022/05/03 06:23:13;;;;;;;23.77;17.65;;;13.10;86.10;;;13.22;63.75;97436.41;5044522;28;20071;-43
2022/05/03 06:25:41;;;;;;;22.80;16.63;;;13.10;85.80;;;13.25;63.76;97443.25;5043694;28;20041;-46
2022/05/03 06:28:10;;;;;;;24.05;18.70;;;13.10;85.60;;;13.28;63.81;97445.53;5044327;28;20041;-46
2022/05/03 06:30:37;;;;;;;24.38;18.67;;;13.20;85.80;;;13.33;63.86;97451.19;5044050;28;20052;-45
2022/05/03 06:33:05;;;;;;;21.80;17.38;;;13.30;85.90;;;13.36;63.95;97454.34;5044240;28;20053;-45
2022/05/03 06:35:33;;;;;;;22.95;17.98;;;13.30;85.70;;;13.42;63.96;97443.94;5044285;28;20059;-44
2022/05/03 06:38:01;;;;;;;24.10;19.63;;;13.40;85.70;;;13.48;63.98;97453.91;5044064;28;20364;-47
2022/05/03 06:40:29;;;;;;;24.00;18.30;;;13.50;85.90;;;13.52;64.02;97460.53;5044118;28;20065;-43
2022/05/03 06:42:57;;;;;;;20.80;17.27;;;13.60;85.80;;;13.57;64.48;97452.75;5043907;28;20045;-46
2022/05/03 06:45:25;;;;;;;20.13;17.20;;;13.60;86.20;;;13.62;64.36;97446.88;5043643;28;20060;-43
2022/05/03 06:47:52;;;;;;;19.95;16.05;;;13.60;86.60;;;13.66;64.19;97454.34;5042796;28;20271;-44
2022/05/03 06:50:20;;;;;;;19.42;17.40;;;13.70;86.50;;;13.71;64.31;97451.94;5044112;28;20247;-44
2022/05/03 06:52:48;;;;;;;18.42;16.23;;;13.70;86.70;;;13.74;64.19;97458.75;5044235;28;20049;-43
2022/05/03 06:55:16;;;;;;;21.58;17.67;;;13.70;86.60;;;13.78;64.18;97452.00;5043746;28;20060;-45
2022/05/03 06:57:44;;;;;;;21.17;17.60;;;13.80;86.30;;;13.79;64.04;97457.19;5042899;28;20263;-43
2022/05/03 07:00:13;;;;;;;23.23;17.27;;;13.80;86.00;;;13.86;63.93;97457.28;5043719;28;20355;-45
2022/05/03 07:02:42;;;;;;;19.83;17.70;;;13.80;86.00;;;13.92;64.06;97458.38;5043671;28;20056;-43
2022/05/03 07:05:10;;;;;;;22.83;17.55;;;13.90;85.90;;;13.97;63.95;97458.63;5044130;28;20045;-43
2022/05/03 07:07:39;;;;;;;20.50;16.63;;;14.00;85.60;;;14.01;63.95;97457.25;5042325;28;20366;-46
2022/05/03 07:10:08;;;;;;;20.85;17.40;;;14.10;85.00;;;14.07;63.80;97464.53;5044457;28;20060;-45
2022/05/03 07:12:36;;;;;;;20.50;15.50;;;14.10;84.90;;;14.13;63.83;97462.94;5043026;28;20057;-43
2022/05/03 07:15:04;;;;;;;23.17;16.40;;;14.20;84.60;;;14.22;63.82;97463.69;5043755;28;20057;-43
2022/05/03 07:23:06;;;;;;;17.77;15.48;;;14.50;83.40;;;14.40;63.39;97477.47;5043334;28;20049;-43
2022/05/03 07:25:35;;;;;;;17.42;15.48;;;14.60;82.60;;;14.41;63.26;97476.44;5042639;28;20056;-44
2022/05/03 07:28:03;;;;;;;16.70;14.38;;;14.60;82.00;;;14.48;63.22;97476.50;5042807;28;20240;-44
2022/05/03 07:30:31;;;;;;;19.15;15.05;;;14.70;81.90;;;14.55;63.12;97477.41;5043764;28;20055;-44
2022/05/03 07:32:59;;;;;;;15.00;13.27;;;14.70;81.10;;;14.61;62.78;97476.69;5043098;28;20049;-43
2022/05/03 07:35:27;;;;;;;15.85;13.27;;;14.80;80.30;;;14.68;62.79;97482.94;5042536;28;20150;-43
2022/05/03 07:37:54;;;;;;;16.92;13.32;;;14.80;79.80;;;14.72;62.54;97486.91;5043312;28;20252;-45
2022/05/03 07:40:22;;;;;;;14.40;11.45;;;14.90;79.50;;;14.77;62.08;97484.47;5042906;28;20236;-46
2022/05/03 07:42:50;;;;;;;13.38;11.13;;;14.90;78.70;;;14.84;61.83;97489.06;5042662;28;20059;-44
2022/05/03 07:45:18;;;;;;;14.65;11.85;;;15.00;78.00;;;14.89;61.79;97484.78;5042747;28;20067;-43
2022/05/03 07:47:47;;;;;;;10.77;9.68;;;15.10;77.80;;;14.94;61.18;97485.03;5041492;28;20045;-44
2022/05/03 07:50:15;;;;;;;11.20;9.95;;;15.10;76.60;;;14.98;60.96;97490.84;5042800;28;20347;-43
2022/05/03 07:52:43;;;;;;;12.80;10.38;;;15.20;75.80;;;15.04;60.81;97489.22;5042771;28;20052;-43
2022/05/03 07:55:10;;;;;;;14.95;11.45;;;15.20;75.30;;;15.07;60.70;97497.72;5042921;28;20052;-43
2022/05/03 07:57:39;;;;;;;12.80;11.48;;;15.20;74.80;;;15.12;60.61;97492.63;5041215;28;20263;-43
2022/05/03 08:00:07;;;;;;;13.88;11.73;;;15.30;75.10;;;15.18;60.58;97499.06;5042608;28;20041;-44
2022/05/03 08:02:35;;;;;;;12.90;11.55;;;15.30;74.90;;;15.20;60.47;97491.66;5042704;28;20045;-43
2022/05/03 08:05:05;;;;;;;12.27;10.68;;;15.40;74.80;;;15.25;60.35;97502.59;5043102;28;20045;-43
2022/05/03 08:07:32;;;;;;;15.43;11.77;;;15.40;74.50;;;15.30;60.12;97502.88;5042004;28;20236;-43
2022/05/03 08:10:01;;;;;;;11.60;10.45;;;15.50;74.20;;;15.34;59.98;97497.94;5042688;28;20370;-43
2022/05/03 08:12:29;;;;;;;11.75;10.30;;;15.50;73.80;;;15.38;59.66;97501.06;5043329;28;20248;-43
2022/05/03 08:14:57;;;;;;;14.70;10.65;;;15.50;73.50;;;15.42;59.81;97495.09;5042446;28;20049;-43
2022/05/03 08:17:27;;;;;;;15.05;11.75;;;15.60;73.60;;;15.49;60.00;97495.13;5039946;28;20056;-45
2022/05/03 08:19:55;;;;;;;14.40;12.02;;;15.70;73.70;;;15.54;59.88;97498.91;5043007;28;20072;-45
2022/05/03 08:22:25;;;;;;;15.10;12.77;;;15.80;73.40;;;15.58;59.74;97498.50;5042249;28;20331;-43
2022/05/03 08:24:53;;;;;;;12.93;11.60;;;15.80;73.30;;;15.62;59.61;97505.97;5042257;28;20045;-44
2022/05/03 08:27:21;;;;;;;12.13;9.43;;;15.90;73.10;;;15.68;59.51;97509.72;5041501;28;20053;-43
2022/05/03 08:29:48;;;;;;;10.80;9.55;;;15.90;72.70;;;15.73;59.21;97513.50;5042271;28;20235;-44
2022/05/03 08:32:17;;;;;;;13.40;10.48;;;16.00;73.10;;;15.80;59.14;97504.66;5042065;28;20075;-43
2022/05/03 08:34:45;;;;;;;11.18;9.65;;;16.00;71.60;;;15.85;58.41;97513.78;5042144;28;20049;-44
2022/05/03 08:42:47;;;;;;;10.10;8.95;;;16.20;69.70;;;15.99;58.12;97509.31;5042666;28;20049;-44
2022/05/03 08:45:15;;;;;;;8.60;7.75;;;16.20;70.00;;;16.03;57.71;97510.59;5042070;28;20359;-44
2022/05/03 08:47:43;;;;;;;8.73;7.53;;;16.30;69.60;;;16.06;57.33;97512.84;5039735;28;20045;-43
2022/05/03 08:50:12;;;;;;;8.23;7.43;;;16.30;69.00;;;16.10;57.04;97511.44;5041765;28;20053;-43
2022/05/03 08:52:54;;;;;;;9.65;6.85;;;16.30;68.70;;;16.14;56.97;97517.22;5042820;28;20057;-43
2022/05/03 08:55:22;;;;;;;8.43;7.15;;;16.40;67.10;;;16.17;56.41;97510.63;5041790;28;20049;-46
2022/05/03 08:57:50;;;;;;;9.65;8.10;;;16.40;67.30;;;16.17;55.87;97514.16;5040527;28;20049;-44
2022/05/03 09:00:19;;;;;;;8.07;7.28;;;16.40;66.80;;;16.20;55.82;97511.06;5041711;28;20050;-43
2022/05/03 09:02:51;;;;;;;8.85;7.05;;;16.40;66.50;;;16.21;55.82;97511.91;5041977;28;20045;-45
2022/05/03 09:05:22;;;;;;;8.00;7.20;;;16.40;66.40;;;16.20;55.63;97510.22;5041771;28;20045;-43
2022/05/03 09:07:59;;;;;;;7.75;6.38;;;16.40;66.20;;;16.23;55.09;97515.22;5041793;28;20366;-46
2022/05/03 09:10:32;;;;;;;7.85;6.57;;;16.40;64.90;;;16.28;55.15;97513.56;5041786;28;20049;-44
2022/05/03 09:13:25;;;;;;;9.07;6.60;;;16.50;65.20;;;16.37;55.28;97505.34;5042229;28;20057;-44
2022/05/03 09:15:56;;;;;;;9.68;7.45;;;16.60;65.50;;;16.41;54.59;97511.97;5041422;28;20045;-44
2022/05/03 09:18:28;;;;;;;9.02;7.43;;;16.60;64.50;;;16.46;54.90;97512.16;5041908;28;20055;-44
2022/05/03 09:24:05;;;;;;;9.80;8.13;;;16.70;65.50;;;16.61;55.01;97514.72;5079702;28;20052;-47
2022/05/03 09:26:33;;;;;;;9.73;8.73;;;16.80;65.30;;;16.66;55.00;97512.25;5079146;28;20227;-43
2022/05/03 09:29:12;;;;;;;11.15;7.65;;;16.90;65.40;;;16.72;54.09;97500.69;5060342;28;20049;-44
2022/05/03 09:31:50;;;;;;;9.88;8.73;;;17.00;62.50;;;16.78;53.72;97501.72;5045526;28;20049;-43
2022/05/03 09:34:23;;;;;;;7.60;6.80;;;17.10;63.40;;;16.90;54.43;97506.34;5045333;28;20371;-43
2022/05/03 09:37:02;;;;;;;10.95;6.63;;;17.20;63.80;;;16.99;54.37;97508.81;5044762;28;20053;-44
2022/05/03 09:39:38;;;;;;;10.30;6.57;;;17.30;62.90;;;17.09;53.84;97504.69;5045383;28;20052;-43
2022/05/03 09:42:12;;;;;;;8.75;7.20;;;17.40;63.40;;;17.22;53.27;97508.44;5045252;28;20284;-43
2022/05/03 09:44:57;;;;;;;8.73;6.43;;;17.60;61.80;;;17.26;51.45;97496.22;5045519;28;20105;-45
2022/05/03 09:47:46;;;;;;;8.57;7.72;;;17.70;59.80;;;17.39;51.24;97498.06;5043620;28;20053;-43
2022/05/03 09:50:33;;;;;;;7.95;7.07;;;17.80;61.20;;;17.49;52.31;97504.69;5044985;28;20042;-44
2022/05/03 09:53:32;;;;;;;11.45;7.32;;;17.90;59.40;;;17.55;51.11;97507.59;5045117;28;20056;-45
2022/05/03 09:56:12;;;;;;;9.32;6.40;;;17.90;58.70;;;17.56;52.46;97504.66;5043837;28;20236;-44
2022/05/03 09:58:40;;;;;;;7.25;5.63;;;17.90;60.70;;;17.60;51.69;97503.22;5045001;28;20243;-44
2022/05/03 10:01:08;;;;;;;7.75;5.60;;;17.90;59.90;;;17.64;52.08;97500.91;5043792;28;20056;-46
2022/05/03 10:03:36;;;;;;;7.07;4.78;;;17.90;59.90;;;17.69;51.79;97493.06;5044661;28;20041;-45
2022/05/03 10:06:04;;;;;;;7.05;5.60;;;18.00;60.10;;;17.68;50.43;97497.63;5043481;28;20076;-44
2022/05/03 10:08:32;;;;;;;8.48;5.80;;;18.00;58.70;;;17.74;50.00;97497.78;5043724;28;20045;-45
2022/05/03 10:11:01;;;;;;;6.93;5.45;;;18.00;57.00;;;17.73;49.93;97488.06;5044925;28;20053;-43
2022/05/03 10:13:29;;;;;;;8.05;5.10;;;18.00;57.60;;;17.74;49.41;97492.41;5044662;28;20049;-45
2022/05/03 10:21:41;;;;;;;8.63;6.50;;;17.90;56.50;;;17.73;49.79;97486.19;5044462;28;20043;-45
2022/05/03 10:24:11;;;;;;;6.43;5.25;;;18.00;58.20;;;17.70;48.29;97487.47;5043192;28;20051;-43
2022/05/03 10:27:03;;;;;;;6.05;5.25;;;18.10;54.90;;;17.71;47.06;97478.34;5043886;28;20049;-45
2022/05/03 10:29:36;;;;;;;5.70;4.70;;;18.00;52.70;;;17.72;48.11;97471.09;5044448;28;20366;-44
2022/05/03 10:32:17;;;;;;;8.25;5.93;;;18.00;54.80;;;17.66;47.72;97482.69;5044500;28;20068;-43
2022/05/03 10:34:53;;;;;;;6.03;4.68;;;18.00;54.10;;;17.66;47.47;97467.38;5044182;28;20053;-42
2022/05/03 10:37:28;;;;;;;5.25;4.35;;;17.90;54.30;;;17.67;48.05;97470.91;5043813;28;20045;-44
2022/05/03 10:39:59;;;;;;;5.28;4.38;;;17.90;54.60;;;17.72;46.89;97468.41;5044081;28;20045;-44
2022/05/03 10:42:31;;;;;;;4.93;4.10;;;18.00;54.00;;;17.82;47.14;97458.03;5042842;28;20041;-44
2022/05/03 10:45:13;;;;;;;5.70;3.95;;;18.00;53.40;;;17.88;46.05;97454.50;5043841;28;20046;-45
2022/05/03 10:47:53;;;;;;;4.82;4.32;;;18.10;52.80;;;17.97;46.96;97452.41;5042608;28;20049;-46
2022/05/03 10:50:32;;;;;;;5.22;4.25;;;18.20;52.80;;;17.99;45.97;97455.72;5044571;28;20049;-48
2022/05/03 10:53:05;;;;;;;4.38;3.67;;;18.30;51.70;;;18.00;46.56;97457.38;5042809;28;20247;-44
2022/05/03 10:55:57;;;;;;;5.38;4.25;;;18.20;53.10;;;17.99;46.10;97444.09;5044315;28;20053;-45
2022/05/03 10:58:30;;;;;;;6.28;4.40;;;18.30;52.00;;;18.00;46.58;97445.78;5043543;28;20051;-44
2022/05/03 11:01:20;;;;;;;4.80;4.07;;;18.30;53.50;;;18.12;47.02;97448.63;5042955;28;20045;-43
2022/05/03 11:03:54;;;;;;;6.75;4.22;;;18.40;52.60;;;18.13;46.43;97445.72;5043716;28;20051;-44
2022/05/03 11:06:22;;;;;;;5.78;4.65;;;18.40;52.40;;;18.09;45.99;97439.09;5043148;28;20049;-44